sensor_id;sensor_type;location;lat;lon;timestamp;temperature;humidity
59282;DHT22;45054;52.062;10.010;2023-07-29T00:01:23;19.00;99.90
59282;DHT22;45054;52.062;10.010;2023-07-29T00:03:48;19.00;99.90
59282;DHT22;45054;52.062;10.010;2023-07-29T00:06:14;19.00;99.90
59282;DHT22;45054;52.062;10.010;2023-07-29T00:08:40;19.00;99.90
59282;DHT22;45054;52.062;10.010;2023-07-29T00:11:06;19.00;99.90
59282;DHT22;45054;52.062;10.010;2023-07-29T00:13:31;18.90;99.90
59282;DHT22;45054;52.062;10.010;2023-07-29T00:15:57;18.90;99.90
59282;DHT22;45054;52.062;10.010;2023-07-29T00:18:22;19.00;99.90
59282;DHT22;45054;52.062;10.010;2023-07-29T00:20:48;18.90;99.90
59282;DHT22;45054;52.062;10.010;2023-07-29T00:23:13;18.90;99.90
59282;DHT22;45054;52.062;10.010;2023-07-29T00:25:40;18.90;99.90
59282;DHT22;45054;52.062;10.010;2023-07-29T00:28:06;18.90;99.90
59282;DHT22;45054;52.062;10.010;2023-07-29T00:30:31;18.90;99.90
59282;DHT22;45054;52.062;10.010;2023-07-29T00:32:57;18.90;99.90
59282;DHT22;45054;52.062;10.010;2023-07-29T00:35:22;18.90;99.90
59282;DHT22;45054;52.062;10.010;2023-07-29T00:37:48;18.90;99.90
59282;DHT22;45054;52.062;10.010;2023-07-29T00:40:14;19.00;99.90
59282;DHT22;45054;52.062;10.010;2023-07-29T00:42:41;18.90;99.90
59282;DHT22;45054;52.062;10.010;2023-07-29T00:45:07;18.90;99.90
59282;DHT22;45054;52.062;10.010;2023-07-29T00:47:33;18.90;99.90
59282;DHT22;45054;52.062;10.010;2023-07-29T00:49:58;18.90;99.90
59282;DHT22;45054;52.062;10.010;2023-07-29T00:52:24;18.80;99.90
59282;DHT22;45054;52.062;10.010;2023-07-29T00:54:49;18.90;99.90
59282;DHT22;45054;52.062;10.010;2023-07-29T00:57:15;18.80;99.90
59282;DHT22;45054;52.062;10.010;2023-07-29T00:59:43;18.80;99.90
59282;DHT22;45054;52.062;10.010;2023-07-29T01:02:08;18.80;99.90
59282;DHT22;45054;52.062;10.010;2023-07-29T01:04:34;18.80;99.90
59282;DHT22;45054;52.062;10.010;2023-07-29T01:07:02;18.80;99.90
59282;DHT22;45054;52.062;10.010;2023-07-29T01:09:30;18.80;99.90
59282;DHT22;45054;52.062;10.010;2023-07-29T01:12:01;18.80;99.90
59282;DHT22;45054;52.062;10.010;2023-07-29T01:14:32;18.80;99.90
59282;DHT22;45054;52.062;10.010;2023-07-29T01:17:01;18.80;99.90
59282;DHT22;45054;52.062;10.010;2023-07-29T01:19:36;18.80;99.90
59282;DHT22;45054;52.062;10.010;2023-07-29T01:22:05;18.70;99.90
59282;DHT22;45054;52.062;10.010;2023-07-29T01:24:33;18.70;99.90
59282;DHT22;45054;52.062;10.010;2023-07-29T01:26:59;18.70;99.90
59282;DHT22;45054;52.062;10.010;2023-07-29T01:29:24;18.70;99.90
59282;DHT22;45054;52.062;10.010;2023-07-29T01:31:50;18.70;99.90
59282;DHT22;45054;52.062;10.010;2023-07-29T01:34:19;18.60;99.90
59282;DHT22;45054;52.062;10.010;2023-07-29T01:36:46;18.60;99.90
59282;DHT22;45054;52.062;10.010;2023-07-29T01:39:12;18.50;99.90
59282;DHT22;45054;52.062;10.010;2023-07-29T01:41:41;18.40;99.90
59282;DHT22;45054;52.062;10.010;2023-07-29T01:44:07;18.30;99.90
59282;DHT22;45054;52.062;10.010;2023-07-29T01:46:33;18.20;99.90
59282;DHT22;45054;52.062;10.010;2023-07-29T01:48:58;18.20;99.90
59282;DHT22;45054;52.062;10.010;2023-07-29T01:51:24;18.00;99.90
59282;DHT22;45054;52.062;10.010;2023-07-29T01:53:49;17.90;99.90
59282;DHT22;45054;52.062;10.010;2023-07-29T01:56:15;17.90;99.90
59282;DHT22;45054;52.062;10.010;2023-07-29T01:58:42;17.90;99.90
59282;DHT22;45054;52.062;10.010;2023-07-29T02:01:07;17.90;99.90
59282;DHT22;45054;52.062;10.010;2023-07-29T02:03:32;17.80;99.90
59282;DHT22;45054;52.062;10.010;2023-07-29T02:05:58;17.70;99.90
59282;DHT22;45054;52.062;10.010;2023-07-29T02:08:23;17.70;99.90
59282;DHT22;45054;52.062;10.010;2023-07-29T02:10:49;17.70;99.90
59282;DHT22;45054;52.062;10.010;2023-07-29T02:13:14;17.70;99.90
59282;DHT22;45054;52.062;10.010;2023-07-29T02:15:41;17.80;99.90
59282;DHT22;45054;52.062;10.010;2023-07-29T02:18:07;17.90;99.90
59282;DHT22;45054;52.062;10.010;2023-07-29T02:20:32;17.90;99.90
59282;DHT22;45054;52.062;10.010;2023-07-29T02:22:58;17.90;99.90
59282;DHT22;45054;52.062;10.010;2023-07-29T02:25:23;18.00;99.90
59282;DHT22;45054;52.062;10.010;2023-07-29T02:27:49;18.00;99.90
59282;DHT22;45054;52.062;10.010;2023-07-29T02:30:14;18.00;99.90
59282;DHT22;45054;52.062;10.010;2023-07-29T02:32:41;18.10;99.90
59282;DHT22;45054;52.062;10.010;2023-07-29T02:35:07;18.10;99.90
59282;DHT22;45054;52.062;10.010;2023-07-29T02:37:32;18.10;99.90
59282;DHT22;45054;52.062;10.010;2023-07-29T02:39:58;18.10;99.90
59282;DHT22;45054;52.062;10.010;2023-07-29T02:42:23;18.00;99.90
59282;DHT22;45054;52.062;10.010;2023-07-29T02:44:49;18.00;99.90
59282;DHT22;45054;52.062;10.010;2023-07-29T02:47:14;18.10;99.90
59282;DHT22;45054;52.062;10.010;2023-07-29T02:49:41;18.10;99.90
59282;DHT22;45054;52.062;10.010;2023-07-29T02:52:07;18.10;99.90
59282;DHT22;45054;52.062;10.010;2023-07-29T02:54:32;18.20;99.90
59282;DHT22;45054;52.062;10.010;2023-07-29T02:56:58;18.20;99.90
59282;DHT22;45054;52.062;10.010;2023-07-29T02:59:23;18.20;99.90
59282;DHT22;45054;52.062;10.010;2023-07-29T03:01:48;18.20;99.90
59282;DHT22;45054;52.062;10.010;2023-07-29T03:04:14;18.20;99.90
59282;DHT22;45054;52.062;10.010;2023-07-29T03:06:41;18.30;99.90
59282;DHT22;45054;52.062;10.010;2023-07-29T03:09:06;18.30;99.90
59282;DHT22;45054;52.062;10.010;2023-07-29T03:11:32;18.30;99.90
59282;DHT22;45054;52.062;10.010;2023-07-29T03:13:57;18.40;99.90
59282;DHT22;45054;52.062;10.010;2023-07-29T03:16:22;18.40;99.90
59282;DHT22;45054;52.062;10.010;2023-07-29T03:18:48;18.40;99.90
59282;DHT22;45054;52.062;10.010;2023-07-29T03:21:14;18.40;99.90
59282;DHT22;45054;52.062;10.010;2023-07-29T03:23:40;18.30;99.90
59282;DHT22;45054;52.062;10.010;2023-07-29T03:26:06;18.40;99.90
59282;DHT22;45054;52.062;10.010;2023-07-29T03:28:32;18.40;99.90
59282;DHT22;45054;52.062;10.010;2023-07-29T03:30:58;18.40;99.90
59282;DHT22;45054;52.062;10.010;2023-07-29T03:33:24;18.40;99.90
59282;DHT22;45054;52.062;10.010;2023-07-29T03:35:49;18.40;99.90
59282;DHT22;45054;52.062;10.010;2023-07-29T03:38:15;18.30;99.90
59282;DHT22;45054;52.062;10.010;2023-07-29T03:40:42;18.30;99.90
59282;DHT22;45054;52.062;10.010;2023-07-29T03:43:08;18.20;99.90
59282;DHT22;45054;52.062;10.010;2023-07-29T03:45:33;18.20;99.90
59282;DHT22;45054;52.062;10.010;2023-07-29T03:47:59;18.30;99.90
59282;DHT22;45054;52.062;10.010;2023-07-29T03:50:26;18.30;99.90
59282;DHT22;45054;52.062;10.010;2023-07-29T03:52:51;18.30;99.90
59282;DHT22;45054;52.062;10.010;2023-07-29T03:55:17;18.40;99.90
59282;DHT22;45054;52.062;10.010;2023-07-29T03:57:44;18.40;99.90
59282;DHT22;45054;52.062;10.010;2023-07-29T04:00:10;18.40;99.90
59282;DHT22;45054;52.062;10.010;2023-07-29T04:02:35;18.40;99.90
59282;DHT22;45054;52.062;10.010;2023-07-29T04:05:01;18.40;99.90
59282;DHT22;45054;52.062;10.010;2023-07-29T04:07:26;18.50;99.90
59282;DHT22;45054;52.062;10.010;2023-07-29T04:09:52;18.50;99.90
59282;DHT22;45054;52.062;10.010;2023-07-29T04:12:17;18.50;99.90
59282;DHT22;45054;52.062;10.010;2023-07-29T04:14:44;18.50;99.90
59282;DHT22;45054;52.062;10.010;2023-07-29T04:17:09;18.50;99.90
59282;DHT22;45054;52.062;10.010;2023-07-29T04:19:35;18.50;99.90
59282;DHT22;45054;52.062;10.010;2023-07-29T04:22:00;18.50;99.90
59282;DHT22;45054;52.062;10.010;2023-07-29T04:24:26;18.50;99.90
59282;DHT22;45054;52.062;10.010;2023-07-29T04:26:51;18.50;99.90
59282;DHT22;45054;52.062;10.010;2023-07-29T04:29:17;18.50;99.90
59282;DHT22;45054;52.062;10.010;2023-07-29T04:31:43;18.50;99.90
59282;DHT22;45054;52.062;10.010;2023-07-29T04:34:09;18.60;99.90
59282;DHT22;45054;52.062;10.010;2023-07-29T04:36:34;18.60;99.90
59282;DHT22;45054;52.062;10.010;2023-07-29T04:39:00;18.60;99.90
59282;DHT22;45054;52.062;10.010;2023-07-29T04:41:25;18.60;99.90
59282;DHT22;45054;52.062;10.010;2023-07-29T04:43:51;18.60;99.90
59282;DHT22;45054;52.062;10.010;2023-07-29T04:46:16;18.60;99.90
59282;DHT22;45054;52.062;10.010;2023-07-29T04:48:43;18.60;99.90
59282;DHT22;45054;52.062;10.010;2023-07-29T04:51:08;18.70;99.90
59282;DHT22;45054;52.062;10.010;2023-07-29T04:53:34;18.60;99.90
59282;DHT22;45054;52.062;10.010;2023-07-29T04:55:59;18.70;99.90
59282;DHT22;45054;52.062;10.010;2023-07-29T04:58:25;18.70;99.90
59282;DHT22;45054;52.062;10.010;2023-07-29T05:00:50;18.80;99.90
59282;DHT22;45054;52.062;10.010;2023-07-29T05:03:16;18.80;99.90
59282;DHT22;45054;52.062;10.010;2023-07-29T05:05:42;18.80;99.90
59282;DHT22;45054;52.062;10.010;2023-07-29T05:08:08;18.90;99.90
59282;DHT22;45054;52.062;10.010;2023-07-29T05:10:34;18.90;99.90
59282;DHT22;45054;52.062;10.010;2023-07-29T05:12:59;18.80;99.90
59282;DHT22;45054;52.062;10.010;2023-07-29T05:15:25;18.80;99.90
59282;DHT22;45054;52.062;10.010;2023-07-29T05:17:50;18.80;99.90
59282;DHT22;45054;52.062;10.010;2023-07-29T05:20:16;18.80;99.90
59282;DHT22;45054;52.062;10.010;2023-07-29T05:22:43;18.80;99.90
59282;DHT22;45054;52.062;10.010;2023-07-29T05:25:08;18.80;99.90
59282;DHT22;45054;52.062;10.010;2023-07-29T05:27:33;18.80;99.90
59282;DHT22;45054;52.062;10.010;2023-07-29T05:29:59;18.80;99.90
59282;DHT22;45054;52.062;10.010;2023-07-29T05:32:24;18.80;99.90
59282;DHT22;45054;52.062;10.010;2023-07-29T05:34:50;18.80;99.90
59282;DHT22;45054;52.062;10.010;2023-07-29T05:37:15;18.70;99.90
59282;DHT22;45054;52.062;10.010;2023-07-29T05:39:42;18.70;99.90
59282;DHT22;45054;52.062;10.010;2023-07-29T05:42:07;18.70;99.90
59282;DHT22;45054;52.062;10.010;2023-07-29T05:44:33;18.70;99.90
59282;DHT22;45054;52.062;10.010;2023-07-29T05:46:58;18.70;99.90
59282;DHT22;45054;52.062;10.010;2023-07-29T05:49:24;18.70;99.90
59282;DHT22;45054;52.062;10.010;2023-07-29T05:51:49;18.70;99.90
59282;DHT22;45054;52.062;10.010;2023-07-29T05:54:15;18.70;99.90
59282;DHT22;45054;52.062;10.010;2023-07-29T05:56:42;18.60;99.90
59282;DHT22;45054;52.062;10.010;2023-07-29T05:59:07;18.60;99.90
59282;DHT22;45054;52.062;10.010;2023-07-29T06:01:32;18.60;99.90
59282;DHT22;45054;52.062;10.010;2023-07-29T06:03:58;18.50;99.90
59282;DHT22;45054;52.062;10.010;2023-07-29T06:06:23;18.50;99.90
59282;DHT22;45054;52.062;10.010;2023-07-29T06:08:49;18.50;99.90
59282;DHT22;45054;52.062;10.010;2023-07-29T06:11:15;18.50;99.90
59282;DHT22;45054;52.062;10.010;2023-07-29T06:13:41;18.40;99.90
59282;DHT22;45054;52.062;10.010;2023-07-29T06:16:07;18.40;99.90
59282;DHT22;45054;52.062;10.010;2023-07-29T06:18:32;18.50;99.90
59282;DHT22;45054;52.062;10.010;2023-07-29T06:20:58;18.50;99.90
59282;DHT22;45054;52.062;10.010;2023-07-29T06:23:23;18.50;99.90
59282;DHT22;45054;52.062;10.010;2023-07-29T06:25:49;18.40;99.90
59282;DHT22;45054;52.062;10.010;2023-07-29T06:28:14;18.40;99.90
59282;DHT22;45054;52.062;10.010;2023-07-29T06:30:41;18.30;99.90
59282;DHT22;45054;52.062;10.010;2023-07-29T06:33:07;18.30;99.90
59282;DHT22;45054;52.062;10.010;2023-07-29T06:35:32;18.30;99.90
59282;DHT22;45054;52.062;10.010;2023-07-29T06:37:57;18.20;99.90
59282;DHT22;45054;52.062;10.010;2023-07-29T06:40:23;18.20;99.90
59282;DHT22;45054;52.062;10.010;2023-07-29T06:42:48;18.20;99.90
59282;DHT22;45054;52.062;10.010;2023-07-29T06:45:14;18.20;99.90
59282;DHT22;45054;52.062;10.010;2023-07-29T06:47:41;18.30;99.90
59282;DHT22;45054;52.062;10.010;2023-07-29T06:50:06;18.30;99.90
59282;DHT22;45054;52.062;10.010;2023-07-29T06:52:32;18.40;99.90
59282;DHT22;45054;52.062;10.010;2023-07-29T06:54:57;18.40;99.90
59282;DHT22;45054;52.062;10.010;2023-07-29T06:57:23;18.50;99.90
59282;DHT22;45054;52.062;10.010;2023-07-29T06:59:49;18.50;99.90
59282;DHT22;45054;52.062;10.010;2023-07-29T07:02:14;18.60;99.90
59282;DHT22;45054;52.062;10.010;2023-07-29T07:04:41;18.60;99.90
59282;DHT22;45054;52.062;10.010;2023-07-29T07:07:06;18.60;99.90
59282;DHT22;45054;52.062;10.010;2023-07-29T07:09:32;18.70;99.90
59282;DHT22;45054;52.062;10.010;2023-07-29T07:11:57;18.80;99.90
59282;DHT22;45054;52.062;10.010;2023-07-29T07:14:23;18.80;99.90
59282;DHT22;45054;52.062;10.010;2023-07-29T07:16:48;18.80;99.90
59282;DHT22;45054;52.062;10.010;2023-07-29T07:19:14;18.80;99.90
59282;DHT22;45054;52.062;10.010;2023-07-29T07:21:40;18.80;99.90
59282;DHT22;45054;52.062;10.010;2023-07-29T07:24:06;18.80;99.90
59282;DHT22;45054;52.062;10.010;2023-07-29T07:26:31;18.90;99.90
59282;DHT22;45054;52.062;10.010;2023-07-29T07:28:57;18.80;99.90
59282;DHT22;45054;52.062;10.010;2023-07-29T07:31:22;18.70;99.90
59282;DHT22;45054;52.062;10.010;2023-07-29T07:33:48;18.80;99.90
59282;DHT22;45054;52.062;10.010;2023-07-29T07:36:13;18.70;99.90
59282;DHT22;45054;52.062;10.010;2023-07-29T07:38:40;18.80;99.90
59282;DHT22;45054;52.062;10.010;2023-07-29T07:41:05;18.80;99.90
59282;DHT22;45054;52.062;10.010;2023-07-29T07:43:31;18.80;99.90
59282;DHT22;45054;52.062;10.010;2023-07-29T07:46:00;18.80;99.90
59282;DHT22;45054;52.062;10.010;2023-07-29T07:48:25;18.80;99.90
59282;DHT22;45054;52.062;10.010;2023-07-29T07:50:51;18.80;99.90
59282;DHT22;45054;52.062;10.010;2023-07-29T07:53:16;18.90;99.90
59282;DHT22;45054;52.062;10.010;2023-07-29T07:55:44;18.90;99.90
59282;DHT22;45054;52.062;10.010;2023-07-29T07:58:10;19.00;99.90
59282;DHT22;45054;52.062;10.010;2023-07-29T08:00:35;19.10;99.90
59282;DHT22;45054;52.062;10.010;2023-07-29T08:03:01;19.20;99.90
59282;DHT22;45054;52.062;10.010;2023-07-29T08:05:26;19.30;99.90
59282;DHT22;45054;52.062;10.010;2023-07-29T08:07:52;19.30;99.90
59282;DHT22;45054;52.062;10.010;2023-07-29T08:10:17;19.40;99.90
59282;DHT22;45054;52.062;10.010;2023-07-29T08:12:44;19.50;99.90
59282;DHT22;45054;52.062;10.010;2023-07-29T08:15:09;19.50;99.90
59282;DHT22;45054;52.062;10.010;2023-07-29T08:17:35;19.60;99.90
59282;DHT22;45054;52.062;10.010;2023-07-29T08:20:00;19.60;99.90
59282;DHT22;45054;52.062;10.010;2023-07-29T08:22:26;19.50;99.90
59282;DHT22;45054;52.062;10.010;2023-07-29T08:24:51;19.50;99.90
59282;DHT22;45054;52.062;10.010;2023-07-29T08:27:16;19.50;99.90
59282;DHT22;45054;52.062;10.010;2023-07-29T08:29:43;19.40;99.90
59282;DHT22;45054;52.062;10.010;2023-07-29T08:32:09;19.20;99.90
59282;DHT22;45054;52.062;10.010;2023-07-29T08:34:34;19.20;99.90
59282;DHT22;45054;52.062;10.010;2023-07-29T08:37:00;19.10;99.90
59282;DHT22;45054;52.062;10.010;2023-07-29T08:39:25;19.20;99.90
59282;DHT22;45054;52.062;10.010;2023-07-29T08:41:52;19.20;99.90
59282;DHT22;45054;52.062;10.010;2023-07-29T08:44:20;19.20;99.90
59282;DHT22;45054;52.062;10.010;2023-07-29T08:46:48;19.20;99.90
59282;DHT22;45054;52.062;10.010;2023-07-29T08:49:13;19.20;99.90
59282;DHT22;45054;52.062;10.010;2023-07-29T08:51:39;19.20;99.90
59282;DHT22;45054;52.062;10.010;2023-07-29T08:54:07;19.20;99.90
59282;DHT22;45054;52.062;10.010;2023-07-29T08:56:33;19.20;99.90
59282;DHT22;45054;52.062;10.010;2023-07-29T08:58:59;19.10;99.90
59282;DHT22;45054;52.062;10.010;2023-07-29T09:01:25;19.20;99.90
59282;DHT22;45054;52.062;10.010;2023-07-29T09:03:51;19.20;99.90
59282;DHT22;45054;52.062;10.010;2023-07-29T09:06:17;19.20;99.90
59282;DHT22;45054;52.062;10.010;2023-07-29T09:08:43;19.20;99.90
59282;DHT22;45054;52.062;10.010;2023-07-29T09:11:09;19.20;99.90
59282;DHT22;45054;52.062;10.010;2023-07-29T09:13:34;19.20;99.90
59282;DHT22;45054;52.062;10.010;2023-07-29T09:16:00;19.30;99.90
59282;DHT22;45054;52.062;10.010;2023-07-29T09:18:25;19.30;99.90
59282;DHT22;45054;52.062;10.010;2023-07-29T09:20:53;19.40;99.90
59282;DHT22;45054;52.062;10.010;2023-07-29T09:23:18;19.50;99.90
59282;DHT22;45054;52.062;10.010;2023-07-29T09:25:45;19.60;99.90
59282;DHT22;45054;52.062;10.010;2023-07-29T09:28:13;19.70;99.90
59282;DHT22;45054;52.062;10.010;2023-07-29T09:30:38;19.90;99.90
59282;DHT22;45054;52.062;10.010;2023-07-29T09:33:04;20.00;99.90
59282;DHT22;45054;52.062;10.010;2023-07-29T09:35:30;20.00;99.90
59282;DHT22;45054;52.062;10.010;2023-07-29T09:37:58;20.00;99.90
59282;DHT22;45054;52.062;10.010;2023-07-29T09:40:24;20.00;99.90
59282;DHT22;45054;52.062;10.010;2023-07-29T09:42:50;20.00;99.90
59282;DHT22;45054;52.062;10.010;2023-07-29T09:45:19;20.10;99.90
59282;DHT22;45054;52.062;10.010;2023-07-29T09:47:46;20.30;99.90
59282;DHT22;45054;52.062;10.010;2023-07-29T09:50:11;20.30;99.90
59282;DHT22;45054;52.062;10.010;2023-07-29T09:52:37;20.50;99.90
59282;DHT22;45054;52.062;10.010;2023-07-29T09:55:04;20.60;99.90
59282;DHT22;45054;52.062;10.010;2023-07-29T09:57:30;20.90;99.90
59282;DHT22;45054;52.062;10.010;2023-07-29T09:59:55;20.90;99.90
59282;DHT22;45054;52.062;10.010;2023-07-29T10:02:21;21.00;99.90
59282;DHT22;45054;52.062;10.010;2023-07-29T10:04:47;21.00;99.90
59282;DHT22;45054;52.062;10.010;2023-07-29T10:07:12;21.00;99.90
59282;DHT22;45054;52.062;10.010;2023-07-29T10:09:38;21.00;99.90
59282;DHT22;45054;52.062;10.010;2023-07-29T10:12:06;21.00;99.90
59282;DHT22;45054;52.062;10.010;2023-07-29T10:14:32;21.00;99.90
59282;DHT22;45054;52.062;10.010;2023-07-29T10:16:57;20.90;99.90
59282;DHT22;45054;52.062;10.010;2023-07-29T10:19:23;20.80;99.90
59282;DHT22;45054;52.062;10.010;2023-07-29T10:21:49;20.70;99.90
59282;DHT22;45054;52.062;10.010;2023-07-29T10:24:15;20.70;99.90
59282;DHT22;45054;52.062;10.010;2023-07-29T10:26:43;20.70;99.90
59282;DHT22;45054;52.062;10.010;2023-07-29T10:29:13;20.80;99.90
59282;DHT22;45054;52.062;10.010;2023-07-29T10:31:38;20.80;99.90
59282;DHT22;45054;52.062;10.010;2023-07-29T10:34:04;20.80;99.90
59282;DHT22;45054;52.062;10.010;2023-07-29T10:36:30;20.90;99.90
59282;DHT22;45054;52.062;10.010;2023-07-29T10:38:56;21.00;99.90
59282;DHT22;45054;52.062;10.010;2023-07-29T10:41:21;21.00;99.90
59282;DHT22;45054;52.062;10.010;2023-07-29T10:43:47;21.00;99.90
59282;DHT22;45054;52.062;10.010;2023-07-29T10:46:17;21.00;99.90
59282;DHT22;45054;52.062;10.010;2023-07-29T10:48:43;21.00;99.90
59282;DHT22;45054;52.062;10.010;2023-07-29T10:51:21;21.00;99.90
59282;DHT22;45054;52.062;10.010;2023-07-29T10:53:47;20.90;99.90
59282;DHT22;45054;52.062;10.010;2023-07-29T10:56:12;20.80;99.90
59282;DHT22;45054;52.062;10.010;2023-07-29T10:58:38;20.80;99.90
59282;DHT22;45054;52.062;10.010;2023-07-29T11:01:06;20.90;99.90
59282;DHT22;45054;52.062;10.010;2023-07-29T11:03:39;21.10;99.90
59282;DHT22;45054;52.062;10.010;2023-07-29T11:06:04;21.30;99.90
59282;DHT22;45054;52.062;10.010;2023-07-29T11:08:30;21.40;99.90
59282;DHT22;45054;52.062;10.010;2023-07-29T11:11:03;21.50;99.90
59282;DHT22;45054;52.062;10.010;2023-07-29T11:13:29;21.60;99.90
59282;DHT22;45054;52.062;10.010;2023-07-29T11:15:55;21.70;99.90
59282;DHT22;45054;52.062;10.010;2023-07-29T11:18:21;21.90;99.90
59282;DHT22;45054;52.062;10.010;2023-07-29T11:20:47;22.00;99.90
59282;DHT22;45054;52.062;10.010;2023-07-29T11:23:13;22.10;99.90
59282;DHT22;45054;52.062;10.010;2023-07-29T11:25:38;22.20;99.90
59282;DHT22;45054;52.062;10.010;2023-07-29T11:28:04;22.20;99.90
59282;DHT22;45054;52.062;10.010;2023-07-29T11:30:29;22.40;99.90
59282;DHT22;45054;52.062;10.010;2023-07-29T11:32:55;22.30;99.90
59282;DHT22;45054;52.062;10.010;2023-07-29T11:35:21;22.10;99.90
59282;DHT22;45054;52.062;10.010;2023-07-29T11:37:48;22.20;99.90
59282;DHT22;45054;52.062;10.010;2023-07-29T11:40:14;22.20;99.90
59282;DHT22;45054;52.062;10.010;2023-07-29T11:42:40;22.20;99.90
59282;DHT22;45054;52.062;10.010;2023-07-29T11:45:06;22.30;99.90
59282;DHT22;45054;52.062;10.010;2023-07-29T11:47:32;22.30;99.90
59282;DHT22;45054;52.062;10.010;2023-07-29T11:49:58;22.40;99.90
59282;DHT22;45054;52.062;10.010;2023-07-29T11:52:23;22.40;99.90
59282;DHT22;45054;52.062;10.010;2023-07-29T11:54:50;22.70;99.90
59282;DHT22;45054;52.062;10.010;2023-07-29T11:57:16;22.70;99.90
59282;DHT22;45054;52.062;10.010;2023-07-29T11:59:41;22.80;99.90
59282;DHT22;45054;52.062;10.010;2023-07-29T12:02:08;22.80;99.90
59282;DHT22;45054;52.062;10.010;2023-07-29T12:04:35;22.70;99.90
59282;DHT22;45054;52.062;10.010;2023-07-29T12:07:00;22.70;99.90
59282;DHT22;45054;52.062;10.010;2023-07-29T12:09:27;22.70;99.90
59282;DHT22;45054;52.062;10.010;2023-07-29T12:11:54;22.80;99.90
59282;DHT22;45054;52.062;10.010;2023-07-29T12:14:19;22.80;99.90
59282;DHT22;45054;52.062;10.010;2023-07-29T12:16:47;22.90;99.90
59282;DHT22;45054;52.062;10.010;2023-07-29T12:19:13;22.90;99.90
59282;DHT22;45054;52.062;10.010;2023-07-29T12:21:38;22.90;99.90
59282;DHT22;45054;52.062;10.010;2023-07-29T12:24:04;23.00;99.90
59282;DHT22;45054;52.062;10.010;2023-07-29T12:26:29;23.10;99.90
59282;DHT22;45054;52.062;10.010;2023-07-29T12:28:56;23.30;99.90
59282;DHT22;45054;52.062;10.010;2023-07-29T12:31:22;23.30;99.90
59282;DHT22;45054;52.062;10.010;2023-07-29T12:33:55;23.40;99.90
59282;DHT22;45054;52.062;10.010;2023-07-29T12:36:21;23.20;99.90
59282;DHT22;45054;52.062;10.010;2023-07-29T12:38:46;23.20;99.90
59282;DHT22;45054;52.062;10.010;2023-07-29T12:41:12;23.30;99.90
59282;DHT22;45054;52.062;10.010;2023-07-29T12:43:37;23.40;99.90
59282;DHT22;45054;52.062;10.010;2023-07-29T12:46:04;23.30;99.90
59282;DHT22;45054;52.062;10.010;2023-07-29T12:48:29;23.30;99.90
59282;DHT22;45054;52.062;10.010;2023-07-29T12:50:55;23.40;99.90
59282;DHT22;45054;52.062;10.010;2023-07-29T12:53:20;23.60;99.90
59282;DHT22;45054;52.062;10.010;2023-07-29T12:55:46;23.60;99.90
59282;DHT22;45054;52.062;10.010;2023-07-29T12:58:11;23.60;99.90
59282;DHT22;45054;52.062;10.010;2023-07-29T13:00:37;23.60;99.90
59282;DHT22;45054;52.062;10.010;2023-07-29T13:03:04;23.70;99.90
59282;DHT22;45054;52.062;10.010;2023-07-29T13:05:29;23.80;99.90
59282;DHT22;45054;52.062;10.010;2023-07-29T13:07:55;23.90;99.90
59282;DHT22;45054;52.062;10.010;2023-07-29T13:10:20;23.90;99.90
59282;DHT22;45054;52.062;10.010;2023-07-29T13:12:45;24.00;99.90
59282;DHT22;45054;52.062;10.010;2023-07-29T13:15:11;24.10;99.90
59282;DHT22;45054;52.062;10.010;2023-07-29T13:17:36;24.20;99.90
59282;DHT22;45054;52.062;10.010;2023-07-29T13:20:04;24.30;99.90
59282;DHT22;45054;52.062;10.010;2023-07-29T13:22:29;24.40;99.90
59282;DHT22;45054;52.062;10.010;2023-07-29T13:24:55;24.50;99.90
59282;DHT22;45054;52.062;10.010;2023-07-29T13:27:20;24.60;99.90
59282;DHT22;45054;52.062;10.010;2023-07-29T13:29:46;24.80;99.90
59282;DHT22;45054;52.062;10.010;2023-07-29T13:32:11;24.90;99.90
59282;DHT22;45054;52.062;10.010;2023-07-29T13:34:37;25.10;99.90
59282;DHT22;45054;52.062;10.010;2023-07-29T13:37:04;25.20;99.90
59282;DHT22;45054;52.062;10.010;2023-07-29T13:39:29;25.10;99.90
59282;DHT22;45054;52.062;10.010;2023-07-29T13:41:55;24.70;99.90
59282;DHT22;45054;52.062;10.010;2023-07-29T13:44:20;24.40;99.90
59282;DHT22;45054;52.062;10.010;2023-07-29T13:46:45;24.10;99.90
59282;DHT22;45054;52.062;10.010;2023-07-29T13:49:11;23.90;99.90
59282;DHT22;45054;52.062;10.010;2023-07-29T13:51:36;23.60;99.90
59282;DHT22;45054;52.062;10.010;2023-07-29T13:54:03;23.90;99.90
59282;DHT22;45054;52.062;10.010;2023-07-29T13:56:29;24.10;99.90
59282;DHT22;45054;52.062;10.010;2023-07-29T13:58:54;24.40;99.90
59282;DHT22;45054;52.062;10.010;2023-07-29T14:01:20;24.40;99.90
59282;DHT22;45054;52.062;10.010;2023-07-29T14:03:45;24.20;99.90
59282;DHT22;45054;52.062;10.010;2023-07-29T14:06:11;24.10;99.90
59282;DHT22;45054;52.062;10.010;2023-07-29T14:08:36;23.90;99.90
59282;DHT22;45054;52.062;10.010;2023-07-29T14:11:03;23.80;99.90
59282;DHT22;45054;52.062;10.010;2023-07-29T14:13:28;23.90;99.90
59282;DHT22;45054;52.062;10.010;2023-07-29T14:15:54;24.30;99.90
59282;DHT22;45054;52.062;10.010;2023-07-29T14:18:19;24.70;99.90
59282;DHT22;45054;52.062;10.010;2023-07-29T14:20:45;25.10;99.90
59282;DHT22;45054;52.062;10.010;2023-07-29T14:23:13;25.40;99.90
59282;DHT22;45054;52.062;10.010;2023-07-29T14:25:39;25.80;99.90
59282;DHT22;45054;52.062;10.010;2023-07-29T14:28:06;25.80;99.90
59282;DHT22;45054;52.062;10.010;2023-07-29T14:30:31;25.70;99.90
59282;DHT22;45054;52.062;10.010;2023-07-29T14:32:57;25.40;99.90
59282;DHT22;45054;52.062;10.010;2023-07-29T14:35:22;25.40;99.90
59282;DHT22;45054;52.062;10.010;2023-07-29T14:37:48;25.30;99.90
59282;DHT22;45054;52.062;10.010;2023-07-29T14:40:13;25.20;99.90
59282;DHT22;45054;52.062;10.010;2023-07-29T14:42:38;25.20;99.90
59282;DHT22;45054;52.062;10.010;2023-07-29T14:45:06;25.00;99.90
59282;DHT22;45054;52.062;10.010;2023-07-29T14:47:32;24.70;99.90
59282;DHT22;45054;52.062;10.010;2023-07-29T14:49:57;24.40;99.90
59282;DHT22;45054;52.062;10.010;2023-07-29T14:52:23;24.10;99.90
59282;DHT22;45054;52.062;10.010;2023-07-29T14:54:48;23.90;99.90
59282;DHT22;45054;52.062;10.010;2023-07-29T14:57:14;23.80;99.90
59282;DHT22;45054;52.062;10.010;2023-07-29T14:59:39;23.90;99.90
59282;DHT22;45054;52.062;10.010;2023-07-29T15:02:06;23.80;99.90
59282;DHT22;45054;52.062;10.010;2023-07-29T15:04:32;23.90;99.90
59282;DHT22;45054;52.062;10.010;2023-07-29T15:06:57;24.10;99.90